C. Angelo — WCZ5866 — position and weather

sailwx.info

Track history (hours):
 
Tides and Currents Weather Stations Pressure Air Temp Water Temp Dewpoint Dewpoint Depression Visibility Wind Speed Wind Dir Waves Ship Positions

C. Angelo

Owner: G T 110 INC, NEW HAVEN, CT. More information available from US FCC via Universal Licensing System and Coast Guard Vessel Documentation Center.

Last reported at 2015-May-01 18:21 UTC. Time now 2015-May-04 10:59 UTC.
Position N 39°11' W 074°17'.

Length 30 m; draft 4.1 m.

Type: Tug. MMSI: 366988420.

Date/timePositionNaut miles runAvg speedWind from/ knotsBaromVisibWave heightAir tempDewpointWater temp
2015-May-01 18:21N 39°11' W 074°17'8 7.6
2015-May-01 17:21N 39°18' W 074°12'6 7.8
2015-May-01 16:33N 39°24' W 074°08'8 7.6
2015-May-01 15:33N 39°30' W 074°04'8 7.3
2015-May-01 14:30N 39°37' W 074°01'7 7.4
2015-May-01 13:33N 39°44' W 073°58'7 7.5
2015-May-01 12:33N 39°51' W 073°56'7 7.2
2015-May-01 11:31N 39°59' W 073°55'9 8.8
2015-May-01 10:31N 40°08' W 073°56'9 9.2
2015-May-01 09:31N 40°17' W 073°55'12 8.8
2015-May-01 08:06N 40°29' W 073°55'4 7.6
2015-May-01 07:33N 40°31' W 074°00'8 8.3
2015-May-01 06:34N 40°39' W 074°03'10 9.9
2015-May-01 05:33N 40°47' W 073°55'9 8.4
2015-May-01 04:30N 40°51' W 073°45'8 8.8
2015-May-01 03:33N 40°56' W 073°36'9 9.2
2015-May-01 02:33N 41°00' W 073°25'9 9.3
2015-May-01 01:33N 41°04' W 073°14'10 9.7
2015-May-01 00:33N 41°08' W 073°03'8 8.5
2015-Apr-30 23:33N 41°15' W 072°55'3 3.1
2015-Apr-30 22:32N 41°18' W 072°54'0 0.0
2015-Apr-30 20:03N 41°18' W 072°54'0 0.0
2015-Apr-30 17:30N 41°18' W 072°54'0 0.0
2015-Apr-30 16:33N 41°18' W 072°54'0 0.0
2015-Apr-30 14:33N 41°18' W 072°54'0 0.0
2015-Apr-30 11:33N 41°18' W 072°54'0 0.0
2015-Apr-30 10:33N 41°18' W 072°54'0 0.0
2015-Apr-30 09:33N 41°18' W 072°54'0 0.0
2015-Apr-30 08:33N 41°18' W 072°54'0 0.0
2015-Apr-30 07:29N 41°18' W 072°54'0 0.0
2015-Apr-30 06:33N 41°18' W 072°54'0 0.0
2015-Apr-30 05:33N 41°18' W 072°54'0 0.0
2015-Apr-30 04:31N 41°18' W 072°54'0 0.0
2015-Apr-30 03:23N 41°18' W 072°54'0 0.0
2015-Apr-30 02:33N 41°18' W 072°54'0 0.0
2015-Apr-30 01:33N 41°18' W 072°54'0 0.0
2015-Apr-30 00:33N 41°18' W 072°54'0 0.0
2015-Apr-29 23:28N 41°18' W 072°54'0 0.0
2015-Apr-29 22:26N 41°18' W 072°54'0 0.0
2015-Apr-29 21:32N 41°18' W 072°54'0 0.0
2015-Apr-29 20:29N 41°18' W 072°54'0 0.0
2015-Apr-29 19:25N 41°18' W 072°54'0 0.0
2015-Apr-29 18:30N 41°18' W 072°54'0 0.0
2015-Apr-29 17:32N 41°18' W 072°54'0 0.0
2015-Apr-29 08:10N 41°18' W 072°54'0 0.0
2015-Apr-29 07:33N 41°18' W 072°54'0 0.0
2015-Apr-29 06:32N 41°18' W 072°54'0 0.0
2015-Apr-29 05:33N 41°18' W 072°54'0 0.0
2015-Apr-29 04:33N 41°18' W 072°54'0 0.0
2015-Apr-29 03:30N 41°18' W 072°54'0 0.0
2015-Apr-29 02:29N 41°18' W 072°54'0 0.0
2015-Apr-29 01:08N 41°18' W 072°54'0 0.0
2015-Apr-28 22:31N 41°18' W 072°54'6 5.6
2015-Apr-28 21:30N 41°12' W 072°53'9 9.7
2015-Apr-28 20:33N 41°10' W 072°41'10 9.9
2015-Apr-28 19:33N 41°10' W 072°28'9 9.3
2015-Apr-28 18:33N 41°12' W 072°16'9 9.0
2015-Apr-28 17:33N 41°14' W 072°04'8 8.3
2015-Apr-28 16:33N 41°15' W 071°53'9 9.0
2015-Apr-28 15:33N 41°17' W 071°42'9 9.3
2015-Apr-28 14:33N 41°18' W 071°29'9 9.4
2015-Apr-28 13:33N 41°26' W 071°24'10 9.3
2015-Apr-28 12:28N 41°36' W 071°18'8 9.1
2015-Apr-28 11:33N 41°44' W 071°22'5 4.6
2015-Apr-28 10:33N 41°48' W 071°24'0 0.0
2015-Apr-28 09:33N 41°48' W 071°23'0 0.0
2015-Apr-28 08:34N 41°48' W 071°23'0 0.0
2015-Apr-28 07:33N 41°48' W 071°23'0 0.0
2015-Apr-28 06:33N 41°48' W 071°23'0 0.0
2015-Apr-28 05:33N 41°48' W 071°23'0 0.0
2015-Apr-28 04:33N 41°48' W 071°23'0 0.0
2015-Apr-28 03:33N 41°48' W 071°23'0 0.0
2015-Apr-28 02:33N 41°48' W 071°23'0 0.0
2015-Apr-27 21:32N 41°48' W 071°23'0 0.0
2015-Apr-27 20:33N 41°48' W 071°23'0 0.0
2015-Apr-27 19:31N 41°48' W 071°23'0 0.0
2015-Apr-27 18:31N 41°48' W 071°23'0 0.0
2015-Apr-27 16:29N 41°48' W 071°23'0 0.0
2015-Apr-27 15:33N 41°48' W 071°23'0 0.1
2015-Apr-27 14:33N 41°48' W 071°23'0 0.0
2015-Apr-27 13:33N 41°48' W 071°23'0 0.0
2015-Apr-27 12:33N 41°48' W 071°23'0 0.0
2015-Apr-27 11:33N 41°48' W 071°23'0 0.0
2015-Apr-27 10:33N 41°48' W 071°23'0 0.0
2015-Apr-27 09:33N 41°48' W 071°23'0 0.0
2015-Apr-27 08:33N 41°48' W 071°23'0 0.0
2015-Apr-27 07:33N 41°48' W 071°23'0 0.0
2015-Apr-27 06:33N 41°48' W 071°23'0 0.0
2015-Apr-27 05:33N 41°48' W 071°23'0 0.0
2015-Apr-27 04:33N 41°48' W 071°23'0 0.0
2015-Apr-27 03:33N 41°48' W 071°23'0 0.0
2015-Apr-27 02:33N 41°48' W 071°23'0 0.0
2015-Apr-27 01:33N 41°48' W 071°23'0 0.0
2015-Apr-27 00:33N 41°48' W 071°23'0 0.0
2015-Apr-26 23:33N 41°48' W 071°23'0 0.0
2015-Apr-26 22:33N 41°48' W 071°23'0 0.0
2015-Apr-26 21:33N 41°48' W 071°23'0 0.0
2015-Apr-26 20:20N 41°48' W 071°24'0 0.0
2015-Apr-26 17:30N 41°48' W 071°23'0 0.0
2015-Apr-26 16:27N 41°48' W 071°23'0 0.0
2015-Apr-26 14:27N 41°48' W 071°23'0 0.0
2015-Apr-26 13:06N 41°48' W 071°23'0 0.0
2015-Apr-26 12:32N 41°48' W 071°23'0 0.0
2015-Apr-26 11:13N 41°48' W 071°23'2 3.5
2015-Apr-26 10:33N 41°46' W 071°23'6 6.0
2015-Apr-26 09:33N 41°40' W 071°19'6 6.0
2015-Apr-26 08:33N 41°34' W 071°19'4 3.8
2015-Apr-26 07:33N 41°31' W 071°21'3 3.2
2015-Apr-26 06:33N 41°28' W 071°22'6 5.8
2015-Apr-26 05:33N 41°23' W 071°25'6 6.4
2015-Apr-26 04:33N 41°16' W 071°27'6 6.2
2015-Apr-26 03:33N 41°10' W 071°29'6 6.2
2015-Apr-26 02:33N 41°05' W 071°34'7 7.1
2015-Apr-26 01:33N 41°02' W 071°42'6 6.5
2015-Apr-26 00:33N 40°59' W 071°49'7 6.7
2015-Apr-25 23:33N 40°56' W 071°57'7 6.8
2015-Apr-25 22:33N 40°53' W 072°05'7 6.8
2015-Apr-25 21:33N 40°50' W 072°14'7 6.9
2015-Apr-25 20:33N 40°47' W 072°22'7 6.8
2015-Apr-25 19:33N 40°44' W 072°30'7 6.8
2015-Apr-25 18:33N 40°41' W 072°38'7 6.8
2015-Apr-25 17:33N 40°38' W 072°46'63 6.7
2015-Apr-25 08:04N 39°56' W 073°48'3 6.6
2015-Apr-25 07:33N 39°53' W 073°51'7 6.6
2015-Apr-25 06:33N 39°48' W 073°56'6 6.4
2015-Apr-25 05:33N 39°42' W 073°60'6 6.3
2015-Apr-25 04:33N 39°36' W 074°03'7 6.6
2015-Apr-25 03:33N 39°30' W 074°07'7 6.5
2015-Apr-25 02:32N 39°24' W 074°10'46 6.5
2015-Apr-24 19:33N 38°51' W 074°50'7 6.7
2015-Apr-24 18:33N 38°48' W 074°58'5 5.4
2015-Apr-24 17:33N 38°51' W 075°04'4 4.2
2015-Apr-24 16:33N 38°54' W 075°08'2 1.6
2015-Apr-24 15:33N 38°55' W 075°08'4 3.7
2015-Apr-24 14:33N 38°52' W 075°06'7 6.5
2015-Apr-24 13:33N 38°46' W 075°03'6 5.6
2015-Apr-24 12:33N 38°42' W 074°58'6 5.6
2015-Apr-24 11:33N 38°36' W 074°58'6 5.9
2015-Apr-24 10:33N 38°30' W 074°58'269 6.2
2015-Apr-22 15:31N 34°12' W 076°32'  
Track history (hours):
 
Tides and Currents Weather Stations Pressure Air Temp Water Temp Dewpoint Dewpoint Depression Visibility Wind Speed Wind Dir Waves Ship Positions

C. Angelo

Owner: G T 110 INC, NEW HAVEN, CT. More information available from US FCC via Universal Licensing System and Coast Guard Vessel Documentation Center.

Last reported at 2015-May-01 18:21 UTC. Time now 2015-May-04 10:59 UTC.
Position N 39°11' W 074°17'.

Length 30 m; draft 4.1 m.

Type: Tug. MMSI: 366988420.

Date/timePositionNaut miles runAvg speedWind from/ knotsBaromVisibWave heightAir tempDewpointWater temp
2015-May-01 18:21N 39°11' W 074°17'8 7.6
2015-May-01 17:21N 39°18' W 074°12'6 7.8
2015-May-01 16:33N 39°24' W 074°08'8 7.6
2015-May-01 15:33N 39°30' W 074°04'8 7.3
2015-May-01 14:30N 39°37' W 074°01'7 7.4
2015-May-01 13:33N 39°44' W 073°58'7 7.5
2015-May-01 12:33N 39°51' W 073°56'7 7.2
2015-May-01 11:31N 39°59' W 073°55'9 8.8
2015-May-01 10:31N 40°08' W 073°56'9 9.2
2015-May-01 09:31N 40°17' W 073°55'12 8.8
2015-May-01 08:06N 40°29' W 073°55'4 7.6
2015-May-01 07:33N 40°31' W 074°00'8 8.3
2015-May-01 06:34N 40°39' W 074°03'10 9.9
2015-May-01 05:33N 40°47' W 073°55'9 8.4
2015-May-01 04:30N 40°51' W 073°45'8 8.8
2015-May-01 03:33N 40°56' W 073°36'9 9.2
2015-May-01 02:33N 41°00' W 073°25'9 9.3
2015-May-01 01:33N 41°04' W 073°14'10 9.7
2015-May-01 00:33N 41°08' W 073°03'8 8.5
2015-Apr-30 23:33N 41°15' W 072°55'3 3.1
2015-Apr-30 22:32N 41°18' W 072°54'0 0.0
2015-Apr-30 20:03N 41°18' W 072°54'0 0.0
2015-Apr-30 17:30N 41°18' W 072°54'0 0.0
2015-Apr-30 16:33N 41°18' W 072°54'0 0.0
2015-Apr-30 14:33N 41°18' W 072°54'0 0.0
2015-Apr-30 11:33N 41°18' W 072°54'0 0.0
2015-Apr-30 10:33N 41°18' W 072°54'0 0.0
2015-Apr-30 09:33N 41°18' W 072°54'0 0.0
2015-Apr-30 08:33N 41°18' W 072°54'0 0.0
2015-Apr-30 07:29N 41°18' W 072°54'0 0.0
2015-Apr-30 06:33N 41°18' W 072°54'0 0.0
2015-Apr-30 05:33N 41°18' W 072°54'0 0.0
2015-Apr-30 04:31N 41°18' W 072°54'0 0.0
2015-Apr-30 03:23N 41°18' W 072°54'0 0.0
2015-Apr-30 02:33N 41°18' W 072°54'0 0.0
2015-Apr-30 01:33N 41°18' W 072°54'0 0.0
2015-Apr-30 00:33N 41°18' W 072°54'0 0.0
2015-Apr-29 23:28N 41°18' W 072°54'0 0.0
2015-Apr-29 22:26N 41°18' W 072°54'0 0.0
2015-Apr-29 21:32N 41°18' W 072°54'0 0.0
2015-Apr-29 20:29N 41°18' W 072°54'0 0.0
2015-Apr-29 19:25N 41°18' W 072°54'0 0.0
2015-Apr-29 18:30N 41°18' W 072°54'0 0.0
2015-Apr-29 17:32N 41°18' W 072°54'0 0.0
2015-Apr-29 08:10N 41°18' W 072°54'0 0.0
2015-Apr-29 07:33N 41°18' W 072°54'0 0.0
2015-Apr-29 06:32N 41°18' W 072°54'0 0.0
2015-Apr-29 05:33N 41°18' W 072°54'0 0.0
2015-Apr-29 04:33N 41°18' W 072°54'0 0.0
2015-Apr-29 03:30N 41°18' W 072°54'0 0.0
2015-Apr-29 02:29N 41°18' W 072°54'0 0.0
2015-Apr-29 01:08N 41°18' W 072°54'0 0.0
2015-Apr-28 22:31N 41°18' W 072°54'6 5.6
2015-Apr-28 21:30N 41°12' W 072°53'9 9.7
2015-Apr-28 20:33N 41°10' W 072°41'10 9.9
2015-Apr-28 19:33N 41°10' W 072°28'9 9.3
2015-Apr-28 18:33N 41°12' W 072°16'9 9.0
2015-Apr-28 17:33N 41°14' W 072°04'8 8.3
2015-Apr-28 16:33N 41°15' W 071°53'9 9.0
2015-Apr-28 15:33N 41°17' W 071°42'9 9.3
2015-Apr-28 14:33N 41°18' W 071°29'9 9.4
2015-Apr-28 13:33N 41°26' W 071°24'10 9.3
2015-Apr-28 12:28N 41°36' W 071°18'8 9.1
2015-Apr-28 11:33N 41°44' W 071°22'5 4.6
2015-Apr-28 10:33N 41°48' W 071°24'0 0.0
2015-Apr-28 09:33N 41°48' W 071°23'0 0.0
2015-Apr-28 08:34N 41°48' W 071°23'0 0.0
2015-Apr-28 07:33N 41°48' W 071°23'0 0.0
2015-Apr-28 06:33N 41°48' W 071°23'0 0.0
2015-Apr-28 05:33N 41°48' W 071°23'0 0.0
2015-Apr-28 04:33N 41°48' W 071°23'0 0.0
2015-Apr-28 03:33N 41°48' W 071°23'0 0.0
2015-Apr-28 02:33N 41°48' W 071°23'0 0.0
2015-Apr-27 21:32N 41°48' W 071°23'0 0.0
2015-Apr-27 20:33N 41°48' W 071°23'0 0.0
2015-Apr-27 19:31N 41°48' W 071°23'0 0.0
2015-Apr-27 18:31N 41°48' W 071°23'0 0.0
2015-Apr-27 16:29N 41°48' W 071°23'0 0.0
2015-Apr-27 15:33N 41°48' W 071°23'0 0.1
2015-Apr-27 14:33N 41°48' W 071°23'0 0.0
2015-Apr-27 13:33N 41°48' W 071°23'0 0.0
2015-Apr-27 12:33N 41°48' W 071°23'0 0.0
2015-Apr-27 11:33N 41°48' W 071°23'0 0.0
2015-Apr-27 10:33N 41°48' W 071°23'0 0.0
2015-Apr-27 09:33N 41°48' W 071°23'0 0.0
2015-Apr-27 08:33N 41°48' W 071°23'0 0.0
2015-Apr-27 07:33N 41°48' W 071°23'0 0.0
2015-Apr-27 06:33N 41°48' W 071°23'0 0.0
2015-Apr-27 05:33N 41°48' W 071°23'0 0.0
2015-Apr-27 04:33N 41°48' W 071°23'0 0.0
2015-Apr-27 03:33N 41°48' W 071°23'0 0.0
2015-Apr-27 02:33N 41°48' W 071°23'0 0.0
2015-Apr-27 01:33N 41°48' W 071°23'0 0.0
2015-Apr-27 00:33N 41°48' W 071°23'0 0.0
2015-Apr-26 23:33N 41°48' W 071°23'0 0.0
2015-Apr-26 22:33N 41°48' W 071°23'0 0.0
2015-Apr-26 21:33N 41°48' W 071°23'0 0.0
2015-Apr-26 20:20N 41°48' W 071°24'0 0.0
2015-Apr-26 17:30N 41°48' W 071°23'0 0.0
2015-Apr-26 16:27N 41°48' W 071°23'0 0.0
2015-Apr-26 14:27N 41°48' W 071°23'0 0.0
2015-Apr-26 13:06N 41°48' W 071°23'0 0.0
2015-Apr-26 12:32N 41°48' W 071°23'0 0.0
2015-Apr-26 11:13N 41°48' W 071°23'2 3.5
2015-Apr-26 10:33N 41°46' W 071°23'6 6.0
2015-Apr-26 09:33N 41°40' W 071°19'6 6.0
2015-Apr-26 08:33N 41°34' W 071°19'4 3.8
2015-Apr-26 07:33N 41°31' W 071°21'3 3.2
2015-Apr-26 06:33N 41°28' W 071°22'6 5.8
2015-Apr-26 05:33N 41°23' W 071°25'6 6.4
2015-Apr-26 04:33N 41°16' W 071°27'6 6.2
2015-Apr-26 03:33N 41°10' W 071°29'6 6.2
2015-Apr-26 02:33N 41°05' W 071°34'7 7.1
2015-Apr-26 01:33N 41°02' W 071°42'6 6.5
2015-Apr-26 00:33N 40°59' W 071°49'7 6.7
2015-Apr-25 23:33N 40°56' W 071°57'7 6.8
2015-Apr-25 22:33N 40°53' W 072°05'7 6.8
2015-Apr-25 21:33N 40°50' W 072°14'7 6.9
2015-Apr-25 20:33N 40°47' W 072°22'7 6.8
2015-Apr-25 19:33N 40°44' W 072°30'7 6.8
2015-Apr-25 18:33N 40°41' W 072°38'7 6.8
2015-Apr-25 17:33N 40°38' W 072°46'63 6.7
2015-Apr-25 08:04N 39°56' W 073°48'3 6.6
2015-Apr-25 07:33N 39°53' W 073°51'7 6.6
2015-Apr-25 06:33N 39°48' W 073°56'6 6.4
2015-Apr-25 05:33N 39°42' W 073°60'6 6.3
2015-Apr-25 04:33N 39°36' W 074°03'7 6.6
2015-Apr-25 03:33N 39°30' W 074°07'7 6.5
2015-Apr-25 02:32N 39°24' W 074°10'46 6.5
2015-Apr-24 19:33N 38°51' W 074°50'7 6.7
2015-Apr-24 18:33N 38°48' W 074°58'5 5.4
2015-Apr-24 17:33N 38°51' W 075°04'4 4.2
2015-Apr-24 16:33N 38°54' W 075°08'2 1.6
2015-Apr-24 15:33N 38°55' W 075°08'4 3.7
2015-Apr-24 14:33N 38°52' W 075°06'7 6.5
2015-Apr-24 13:33N 38°46' W 075°03'6 5.6
2015-Apr-24 12:33N 38°42' W 074°58'6 5.6
2015-Apr-24 11:33N 38°36' W 074°58'6 5.9
2015-Apr-24 10:33N 38°30' W 074°58'269 6.2
2015-Apr-22 15:31N 34°12' W 076°32'  

Dump ship's entire track history